createdAt,value
2023-01-09T00:00:26.223Z,10.35
2023-01-09T00:02:52.923Z,10.88
2023-01-09T00:05:19.883Z,13.55
2023-01-09T00:07:46.462Z,14.30
2023-01-09T00:10:13.371Z,11.18
2023-01-09T00:12:40.012Z,10.50
2023-01-09T00:15:06.934Z,9.98
2023-01-09T00:17:33.593Z,10.60
2023-01-09T00:20:00.303Z,10.98
2023-01-09T00:22:26.813Z,11.15
2023-01-09T00:24:53.543Z,10.52
2023-01-09T00:27:20.175Z,10.98
2023-01-09T00:29:47.710Z,10.60
2023-01-09T00:32:14.533Z,9.45
2023-01-09T00:34:43.026Z,10.57
2023-01-09T00:37:12.016Z,10.95
2023-01-09T00:39:39.149Z,9.38
2023-01-09T00:42:06.922Z,10.25
2023-01-09T00:44:36.185Z,11.50
2023-01-09T00:47:05.402Z,10.07
2023-01-09T00:49:33.797Z,9.60
2023-01-09T00:52:01.091Z,11.48
2023-01-09T00:54:29.006Z,11.20
2023-01-09T00:56:56.167Z,11.07
2023-01-09T00:59:22.817Z,11.27
2023-01-09T01:01:49.781Z,11.02
2023-01-09T01:04:35.426Z,10.65
2023-01-09T01:07:20.893Z,16.23
2023-01-09T01:09:47.629Z,10.18
2023-01-09T01:12:14.409Z,10.30
2023-01-09T01:14:40.960Z,10.93
2023-01-09T01:17:08.007Z,11.85
2023-01-09T01:19:35.337Z,10.98
2023-01-09T01:22:02.246Z,10.77
2023-01-09T01:24:29.145Z,11.52
2023-01-09T01:26:56.005Z,11.35
2023-01-09T01:29:22.644Z,12.23
2023-01-09T01:31:49.290Z,13.02
2023-01-09T01:34:15.838Z,12.75
2023-01-09T01:36:42.428Z,10.88
2023-01-09T01:39:08.968Z,11.38
2023-01-09T01:41:35.845Z,12.93
2023-01-09T01:44:04.232Z,11.68
2023-01-09T01:46:31.713Z,13.25
2023-01-09T01:48:58.499Z,11.10
2023-01-09T01:51:26.314Z,14.13
2023-01-09T01:53:54.981Z,12.52
2023-01-09T01:56:27.748Z,12.65
2023-01-09T01:59:05.441Z,11.75
2023-01-09T02:01:33.249Z,12.95
2023-01-09T02:04:01.413Z,12.30
2023-01-09T02:06:29.795Z,14.95
2023-01-09T02:08:57.371Z,14.18
2023-01-09T02:11:24.105Z,13.55
2023-01-09T02:13:50.779Z,14.93
2023-01-09T02:16:36.290Z,15.57
2023-01-09T02:19:25.496Z,21.55
2023-01-09T02:22:12.823Z,22.02
2023-01-09T02:24:45.344Z,19.30
2023-01-09T02:27:30.589Z,21.90
2023-01-09T02:30:15.722Z,17.38
2023-01-09T02:33:02.516Z,15.85
2023-01-09T02:35:31.796Z,17.13
2023-01-09T02:38:03.377Z,16.58
2023-01-09T02:40:30.433Z,17.67
2023-01-09T02:42:58.795Z,18.92
2023-01-09T02:45:25.391Z,16.48
2023-01-09T02:47:52.025Z,18.90
2023-01-09T02:50:24.484Z,17.98
2023-01-09T02:52:51.004Z,21.27
2023-01-09T02:55:35.132Z,21.80
2023-01-09T02:58:20.091Z,22.10
2023-01-09T03:00:56.103Z,27.50
2023-01-09T03:03:38.471Z,23.52
2023-01-09T03:06:05.031Z,22.27
2023-01-09T03:08:35.195Z,23.58
2023-01-09T03:11:04.785Z,23.70
2023-01-09T03:13:51.635Z,22.55
2023-01-09T03:16:21.626Z,21.52
2023-01-09T03:18:49.161Z,22.02
2023-01-09T03:21:16.592Z,23.42
2023-01-09T03:23:49.104Z,23.73
2023-01-09T03:26:15.761Z,30.17
2023-01-09T03:28:42.535Z,23.52
2023-01-09T03:31:09.146Z,43.67
2023-01-09T03:33:35.816Z,31.58
2023-01-09T03:36:02.620Z,26.63
2023-01-09T03:38:29.266Z,25.02
2023-01-09T03:40:55.846Z,20.42
2023-01-09T03:43:22.353Z,20.50
2023-01-09T03:45:49.085Z,22.40
2023-01-09T03:48:15.661Z,20.23
2023-01-09T03:50:47.341Z,22.52
2023-01-09T03:53:14.166Z,23.88
2023-01-09T03:55:43.792Z,20.13
2023-01-09T03:58:10.427Z,22.88
2023-01-09T04:00:37.052Z,21.25
2023-01-09T04:03:03.593Z,25.48
2023-01-09T04:05:30.207Z,20.48
2023-01-09T04:07:56.770Z,22.70
2023-01-09T04:10:23.409Z,21.73
2023-01-09T04:12:49.960Z,22.05
2023-01-09T04:15:16.742Z,21.02
2023-01-09T04:17:43.479Z,20.25
2023-01-09T04:20:10.326Z,24.88
2023-01-09T04:22:36.994Z,19.77
2023-01-09T04:25:03.921Z,19.60
2023-01-09T04:27:30.682Z,18.58
2023-01-09T04:29:57.268Z,20.02
2023-01-09T04:32:24.013Z,19.83
2023-01-09T04:34:50.609Z,17.08
2023-01-09T04:37:17.188Z,18.25
2023-01-09T04:39:43.781Z,19.42
2023-01-09T04:42:11.085Z,20.00
2023-01-09T04:44:37.863Z,20.42
2023-01-09T04:47:04.481Z,20.50
2023-01-09T04:49:31.155Z,28.27
2023-01-09T04:51:57.792Z,22.00
2023-01-09T04:54:26.563Z,22.42
2023-01-09T04:59:19.755Z,19.70
2023-01-09T05:01:46.466Z,26.67
2023-01-09T05:04:14.286Z,22.42
2023-01-09T05:06:40.962Z,23.55
2023-01-09T05:09:07.664Z,22.52
2023-01-09T05:11:34.293Z,23.35
2023-01-09T05:14:00.879Z,20.05
2023-01-09T05:16:27.592Z,22.20
2023-01-09T05:18:56.836Z,22.52
2023-01-09T05:21:23.899Z,22.33
2023-01-09T05:23:50.555Z,22.98
2023-01-09T05:26:17.299Z,40.03
2023-01-09T05:28:43.833Z,27.83
2023-01-09T05:31:10.708Z,24.20
2023-01-09T05:33:37.225Z,24.30
2023-01-09T05:36:03.904Z,23.65
2023-01-09T05:38:30.534Z,21.88
2023-01-09T05:40:57.113Z,24.33
2023-01-09T05:43:23.714Z,29.60
2023-01-09T05:45:50.404Z,25.08
2023-01-09T05:48:17.060Z,25.80
2023-01-09T05:50:44.785Z,26.08
2023-01-09T05:53:11.394Z,28.83
2023-01-09T05:55:39.329Z,33.78
2023-01-09T05:58:07.133Z,30.23
2023-01-09T06:00:33.778Z,28.83
2023-01-09T06:03:00.957Z,30.83
2023-01-09T06:05:27.591Z,28.48
2023-01-09T06:07:56.523Z,31.80
2023-01-09T06:10:23.169Z,31.00
2023-01-09T06:12:50.625Z,31.05
2023-01-09T06:15:17.608Z,30.15
2023-01-09T06:17:44.546Z,29.00
2023-01-09T06:20:11.838Z,31.35
2023-01-09T06:22:38.504Z,29.95
2023-01-09T06:25:05.605Z,36.17
2023-01-09T06:27:32.189Z,32.10
2023-01-09T06:29:58.877Z,34.40
2023-01-09T06:32:25.478Z,55.80
2023-01-09T06:34:52.076Z,39.65
2023-01-09T06:37:18.722Z,35.50
2023-01-09T06:39:45.323Z,30.70
2023-01-09T06:42:11.984Z,41.97
2023-01-09T06:44:38.623Z,36.35
2023-01-09T06:47:05.361Z,39.22
2023-01-09T06:49:31.913Z,41.10
2023-01-09T06:51:58.757Z,31.17
2023-01-09T06:54:27.456Z,23.35
2023-01-09T06:56:56.468Z,37.60
2023-01-09T06:59:23.035Z,37.03
2023-01-09T07:01:49.714Z,31.63
2023-01-09T07:04:17.770Z,29.33
2023-01-09T07:06:47.492Z,28.77
2023-01-09T07:09:14.258Z,30.70
2023-01-09T07:11:41.158Z,29.63
2023-01-09T07:14:07.980Z,36.38
2023-01-09T07:16:34.582Z,46.05
2023-01-09T07:19:01.300Z,61.10
2023-01-09T07:21:28.046Z,40.85
2023-01-09T07:23:54.669Z,35.83
2023-01-09T07:26:21.306Z,31.52
2023-01-09T07:28:47.908Z,32.33
2023-01-09T07:31:14.648Z,34.75
2023-01-09T07:33:41.777Z,28.23
2023-01-09T07:36:08.822Z,27.30
2023-01-09T07:38:37.517Z,32.80
2023-01-09T07:41:04.190Z,29.30
2023-01-09T07:43:30.740Z,32.72
2023-01-09T07:45:57.406Z,27.13
2023-01-09T07:48:24.008Z,22.55
2023-01-09T07:50:50.589Z,23.48
2023-01-09T07:53:17.208Z,25.98
2023-01-09T07:55:43.929Z,24.20
2023-01-09T07:58:10.528Z,22.60
2023-01-09T08:00:37.061Z,21.05
2023-01-09T08:03:03.707Z,21.25
2023-01-09T08:05:30.285Z,19.83
2023-01-09T08:07:56.831Z,21.95
2023-01-09T08:10:23.473Z,17.95
2023-01-09T08:12:50.422Z,17.40
2023-01-09T08:15:17.302Z,19.25
2023-01-09T08:17:44.918Z,17.60
2023-01-09T08:20:12.603Z,16.55
2023-01-09T08:22:42.817Z,18.83
2023-01-09T08:25:12.227Z,16.17
2023-01-09T08:27:39.473Z,21.55
2023-01-09T08:30:06.344Z,18.45
2023-01-09T08:32:33.078Z,14.18
2023-01-09T08:34:59.735Z,16.00
2023-01-09T08:37:26.395Z,15.13
2023-01-09T08:39:53.425Z,15.88
2023-01-09T08:42:38.637Z,14.88
2023-01-09T08:45:24.149Z,15.25
2023-01-09T08:47:50.959Z,16.27
2023-01-09T08:50:18.764Z,14.13
2023-01-09T08:52:45.318Z,15.07
2023-01-09T08:55:11.915Z,16.55
2023-01-09T08:57:40.761Z,20.00
2023-01-09T09:00:07.757Z,18.58
2023-01-09T09:02:34.404Z,18.08
2023-01-09T09:05:00.938Z,11.20
2023-01-09T09:07:27.643Z,12.75
2023-01-09T09:09:54.477Z,11.30
2023-01-09T09:12:21.567Z,12.93
2023-01-09T09:15:07.031Z,13.32
2023-01-09T09:17:33.656Z,11.30
2023-01-09T09:20:00.529Z,13.27
2023-01-09T09:22:27.243Z,14.73
2023-01-09T09:24:53.974Z,11.25
2023-01-09T09:27:21.860Z,11.30
2023-01-09T09:29:48.498Z,9.50
2023-01-09T09:32:15.482Z,11.38
2023-01-09T09:34:42.115Z,10.60
2023-01-09T09:37:08.875Z,11.30
2023-01-09T09:39:35.476Z,11.10
2023-01-09T09:42:23.977Z,9.75
2023-01-09T09:45:05.101Z,9.77
2023-01-09T09:47:40.529Z,12.45
2023-01-09T09:50:20.023Z,12.90
2023-01-09T09:53:01.674Z,11.75
2023-01-09T09:55:31.240Z,11.23
2023-01-09T09:58:00.178Z,12.65
2023-01-09T10:00:27.010Z,12.65
2023-01-09T10:02:56.857Z,15.13
2023-01-09T10:05:27.287Z,12.02
2023-01-09T10:07:53.899Z,9.73
2023-01-09T10:10:32.740Z,13.55
2023-01-09T10:13:00.263Z,10.18
2023-01-09T10:15:42.910Z,11.02
2023-01-09T10:18:18.402Z,14.25
2023-01-09T10:20:47.743Z,13.65
2023-01-09T10:23:14.366Z,10.05
2023-01-09T10:25:46.577Z,10.38
2023-01-09T10:28:13.190Z,11.52
2023-01-09T10:30:42.732Z,9.55
2023-01-09T10:33:15.445Z,11.25
2023-01-09T10:35:47.999Z,9.98
2023-01-09T10:38:17.791Z,9.90
2023-01-09T10:40:48.543Z,10.95
2023-01-09T10:43:21.121Z,9.38
2023-01-09T10:45:52.609Z,9.48
2023-01-09T10:48:24.167Z,9.20
2023-01-09T10:50:51.447Z,8.93
2023-01-09T10:53:22.239Z,8.73
2023-01-09T10:55:51.776Z,12.32
2023-01-09T10:58:19.819Z,10.23
2023-01-09T11:00:47.917Z,10.13
2023-01-09T11:03:15.691Z,9.93
2023-01-09T11:05:42.631Z,9.85
2023-01-09T11:08:09.142Z,8.55
2023-01-09T11:10:48.123Z,10.15
2023-01-09T11:13:25.918Z,10.75
2023-01-09T11:16:14.220Z,9.05
2023-01-09T11:18:52.366Z,9.80
2023-01-09T11:21:24.902Z,10.65
2023-01-09T11:23:51.538Z,11.05
2023-01-09T11:26:22.559Z,12.65
2023-01-09T11:29:04.631Z,11.25
2023-01-09T11:31:31.392Z,12.48
2023-01-09T11:33:58.126Z,10.52
2023-01-09T11:36:26.062Z,14.65
2023-01-09T11:38:54.017Z,11.60
2023-01-09T11:41:24.791Z,9.77
2023-01-09T11:43:52.799Z,9.55
2023-01-09T11:46:34.725Z,9.68
2023-01-09T11:49:02.135Z,9.57
2023-01-09T11:51:30.218Z,11.13
2023-01-09T11:54:00.885Z,9.55
2023-01-09T11:56:27.618Z,10.82
2023-01-09T11:58:54.516Z,9.73
2023-01-09T12:01:40.765Z,9.77
2023-01-09T12:04:42.963Z,10.02
2023-01-09T12:07:23.424Z,9.48
2023-01-09T12:10:12.706Z,7.63
2023-01-09T12:12:52.915Z,8.80
2023-01-09T12:15:48.633Z,7.80
2023-01-09T12:18:23.819Z,7.25
2023-01-09T12:20:53.425Z,7.25
2023-01-09T12:23:41.178Z,8.52
2023-01-09T12:26:31.036Z,11.00
2023-01-09T12:29:05.642Z,7.97
2023-01-09T12:31:50.711Z,8.57
2023-01-09T12:34:29.776Z,8.25
2023-01-09T12:37:06.203Z,7.05
2023-01-09T12:39:48.196Z,7.55
2023-01-09T12:42:24.175Z,8.13
2023-01-09T12:45:03.284Z,7.22
2023-01-09T12:47:29.805Z,8.63
2023-01-09T12:50:05.950Z,7.25
2023-01-09T12:52:36.879Z,7.47
2023-01-09T12:55:08.575Z,7.07
2023-01-09T12:57:40.385Z,7.53
2023-01-09T13:00:15.277Z,8.65
2023-01-09T13:02:44.585Z,8.77
2023-01-09T13:05:15.821Z,7.88
2023-01-09T13:07:44.915Z,7.60
2023-01-09T13:10:27.354Z,7.30
2023-01-09T13:12:54.338Z,7.60
2023-01-09T13:15:20.849Z,7.97
2023-01-09T13:17:50.419Z,8.40
2023-01-09T13:20:28.789Z,7.80
2023-01-09T13:22:55.508Z,8.65
2023-01-09T13:25:34.010Z,9.10
2023-01-09T13:28:01.637Z,9.55
2023-01-09T13:30:28.266Z,9.93
2023-01-09T13:32:55.022Z,8.65
2023-01-09T13:35:21.746Z,7.47
2023-01-09T13:37:53.165Z,9.57
2023-01-09T13:40:19.685Z,12.70
2023-01-09T13:43:16.733Z,8.60
2023-01-09T13:45:44.799Z,8.82
2023-01-09T13:48:11.965Z,9.00
2023-01-09T13:50:38.954Z,10.15
2023-01-09T13:53:17.685Z,9.73
2023-01-09T13:55:59.776Z,10.07
2023-01-09T13:58:30.215Z,9.90
2023-01-09T14:00:58.840Z,10.43
2023-01-09T14:03:26.204Z,9.45
2023-01-09T14:05:52.830Z,9.55
2023-01-09T14:08:21.635Z,7.18
2023-01-09T14:10:53.106Z,9.40
2023-01-09T14:13:31.328Z,8.10
2023-01-09T14:16:05.837Z,7.68
2023-01-09T14:21:03.589Z,7.18
2023-01-09T14:23:52.639Z,7.97
2023-01-09T14:26:21.926Z,9.90
2023-01-09T14:28:48.600Z,9.05
2023-01-09T14:31:31.727Z,8.45
2023-01-09T14:34:23.791Z,7.90
2023-01-09T14:36:59.100Z,9.10
2023-01-09T14:39:26.153Z,13.40
2023-01-09T14:42:05.741Z,9.35
2023-01-09T14:44:35.383Z,8.48
2023-01-09T14:47:11.068Z,13.18
2023-01-09T14:49:40.858Z,7.95
2023-01-09T14:52:15.675Z,9.20
2023-01-09T14:54:43.763Z,8.52
2023-01-09T14:57:30.552Z,9.40
2023-01-09T15:00:15.872Z,10.02
2023-01-09T15:02:43.100Z,10.40
2023-01-09T15:05:20.686Z,11.60
2023-01-09T15:07:53.683Z,15.48
2023-01-09T15:10:22.468Z,14.02
2023-01-09T15:12:50.251Z,11.93
2023-01-09T15:15:17.421Z,12.25
2023-01-09T15:17:46.468Z,11.07
2023-01-09T15:20:18.825Z,9.85
2023-01-09T15:22:54.593Z,11.77
2023-01-09T15:25:38.237Z,11.98
2023-01-09T15:28:38.429Z,11.80
2023-01-09T15:33:31.934Z,10.40
2023-01-09T15:36:02.176Z,9.10
2023-01-09T15:38:30.910Z,9.18
2023-01-09T15:40:58.808Z,10.20
2023-01-09T15:43:27.251Z,11.55
2023-01-09T15:45:54.408Z,11.98
2023-01-09T15:48:23.251Z,11.90
2023-01-09T15:50:51.577Z,11.18
2023-01-09T15:53:20.012Z,11.98
2023-01-09T15:56:01.890Z,13.63
2023-01-09T15:58:29.778Z,11.10
2023-01-09T16:00:57.399Z,11.05
2023-01-09T16:03:24.746Z,13.68
2023-01-09T16:05:52.855Z,13.07
2023-01-09T16:08:21.369Z,11.73
2023-01-09T16:10:52.507Z,14.00
2023-01-09T16:13:20.888Z,13.18
2023-01-09T16:15:47.448Z,12.15
2023-01-09T16:18:14.017Z,11.57
2023-01-09T16:20:40.694Z,12.85
2023-01-09T16:23:33.779Z,9.70
2023-01-09T16:28:30.888Z,10.65
2023-01-09T16:31:00.632Z,10.48
2023-01-09T16:33:28.554Z,13.27
2023-01-09T16:35:55.274Z,11.23
2023-01-09T16:38:22.838Z,12.45
2023-01-09T16:41:18.493Z,11.05
2023-01-09T16:43:45.544Z,11.00
2023-01-09T16:46:12.959Z,10.35
2023-01-09T16:48:40.321Z,11.38
2023-01-09T16:51:07.164Z,11.73
2023-01-09T16:53:33.784Z,12.00
2023-01-09T16:56:00.380Z,12.65
2023-01-09T16:58:30.115Z,12.32
2023-01-09T17:00:57.438Z,13.27
2023-01-09T17:03:24.905Z,11.82
2023-01-09T17:05:53.580Z,13.93
2023-01-09T17:10:46.669Z,9.90
2023-01-09T17:13:13.233Z,11.20
2023-01-09T17:15:39.872Z,10.15
2023-01-09T17:18:08.837Z,10.90
2023-01-09T17:20:35.440Z,11.60
2023-01-09T17:23:01.988Z,13.25
2023-01-09T17:25:47.281Z,12.60
2023-01-09T17:28:33.056Z,12.32
2023-01-09T17:31:05.942Z,11.00
2023-01-09T17:33:33.333Z,11.25
2023-01-09T17:36:01.358Z,12.70
2023-01-09T17:38:28.094Z,10.95
2023-01-09T17:40:55.827Z,11.10
2023-01-09T17:43:22.537Z,12.85
2023-01-09T17:45:49.296Z,10.63
2023-01-09T17:48:22.163Z,11.75
2023-01-09T17:50:49.529Z,14.40
2023-01-09T17:53:17.917Z,14.57
2023-01-09T17:55:44.552Z,11.88
2023-01-09T17:58:37.262Z,10.45
2023-01-09T18:01:03.871Z,11.18
2023-01-09T18:03:34.476Z,13.73
2023-01-09T18:06:01.107Z,12.75
2023-01-09T18:08:27.743Z,15.05
2023-01-09T18:10:54.844Z,18.88
2023-01-09T18:13:21.635Z,14.27
2023-01-09T18:15:48.356Z,14.32
2023-01-09T18:18:16.385Z,16.77
2023-01-09T18:20:43.730Z,17.75
2023-01-09T18:23:11.136Z,18.58
2023-01-09T18:25:46.785Z,17.15
2023-01-09T18:28:16.978Z,18.60
2023-01-09T18:30:47.901Z,19.02
2023-01-09T18:33:15.793Z,19.17
2023-01-09T18:35:42.590Z,17.05
2023-01-09T18:38:09.407Z,18.45
2023-01-09T18:40:37.203Z,17.02
2023-01-09T18:43:07.971Z,18.48
2023-01-09T18:45:36.561Z,16.77
2023-01-09T18:50:29.661Z,17.48
2023-01-09T18:52:56.282Z,15.02
2023-01-09T18:55:23.003Z,13.43
2023-01-09T18:57:49.795Z,14.65
2023-01-09T19:00:16.493Z,11.82
2023-01-09T19:02:43.431Z,11.30
2023-01-09T19:05:10.113Z,12.73
2023-01-09T19:07:36.738Z,12.73
2023-01-09T19:10:03.422Z,12.60
2023-01-09T19:12:30.062Z,12.18
2023-01-09T19:14:56.640Z,14.70
2023-01-09T19:17:23.333Z,13.32
2023-01-09T19:19:50.172Z,13.95
2023-01-09T19:22:16.919Z,16.92
2023-01-09T19:24:43.550Z,17.58
2023-01-09T19:27:10.133Z,20.40
2023-01-09T19:29:37.023Z,15.02
2023-01-09T19:32:04.632Z,16.27
2023-01-09T19:34:31.243Z,13.52
2023-01-09T19:36:57.977Z,15.88
2023-01-09T19:39:24.669Z,14.10
2023-01-09T19:41:51.334Z,14.05
2023-01-09T19:44:19.025Z,14.85
2023-01-09T19:46:46.425Z,17.92
2023-01-09T19:49:13.342Z,15.23
2023-01-09T19:51:40.354Z,14.50
2023-01-09T19:54:07.003Z,13.50
2023-01-09T19:56:42.601Z,14.65
2023-01-09T19:59:09.779Z,17.02
2023-01-09T20:01:37.560Z,15.52
2023-01-09T20:04:07.843Z,13.15
2023-01-09T20:06:35.405Z,14.00
2023-01-09T20:09:03.605Z,12.75
2023-01-09T20:11:30.966Z,13.52
2023-01-09T20:13:57.621Z,12.32
2023-01-09T20:16:33.962Z,13.50
2023-01-09T20:19:04.095Z,11.73
2023-01-09T20:21:30.734Z,10.32
2023-01-09T20:23:59.020Z,12.15
2023-01-09T20:26:26.041Z,10.40
2023-01-09T20:28:52.871Z,12.07
2023-01-09T20:31:20.734Z,11.60
2023-01-09T20:33:47.929Z,16.45
2023-01-09T20:36:15.066Z,11.55
2023-01-09T20:38:42.208Z,12.85
2023-01-09T20:41:23.659Z,13.73
2023-01-09T20:43:50.908Z,14.05
2023-01-09T20:46:17.516Z,13.77
2023-01-09T20:48:46.547Z,14.50
2023-01-09T20:51:14.883Z,14.27
2023-01-09T20:53:45.463Z,14.57
2023-01-09T20:56:12.802Z,14.93
2023-01-09T20:58:39.440Z,12.50
2023-01-09T21:01:11.208Z,12.10
2023-01-09T21:03:38.110Z,13.95
2023-01-09T21:06:06.539Z,12.20
2023-01-09T21:08:34.096Z,12.00
2023-01-09T21:11:01.031Z,11.50
2023-01-09T21:13:28.094Z,10.60
2023-01-09T21:15:54.802Z,11.63
2023-01-09T21:18:21.376Z,13.73
2023-01-09T21:20:49.850Z,11.43
2023-01-09T21:23:17.617Z,15.88
2023-01-09T21:25:45.287Z,11.98
2023-01-09T21:28:12.938Z,11.25
2023-01-09T21:30:39.592Z,13.48
2023-01-09T21:33:06.228Z,14.40
2023-01-09T21:35:32.999Z,14.98
2023-01-09T21:37:59.559Z,15.45
2023-01-09T21:40:26.233Z,15.57
2023-01-09T21:43:11.331Z,18.75
2023-01-09T21:45:56.867Z,15.05
2023-01-09T21:48:26.198Z,14.23
2023-01-09T21:50:52.876Z,15.68
2023-01-09T21:53:19.514Z,12.85
2023-01-09T21:55:48.435Z,12.30
2023-01-09T21:58:15.315Z,11.57
2023-01-09T22:00:42.212Z,11.40
2023-01-09T22:03:14.540Z,14.75
2023-01-09T22:05:41.208Z,13.43
2023-01-09T22:08:07.775Z,11.57
2023-01-09T22:10:34.623Z,11.85
2023-01-09T22:13:13.514Z,13.00
2023-01-09T22:15:41.461Z,15.57
2023-01-09T22:18:08.045Z,11.75
2023-01-09T22:20:34.717Z,12.43
2023-01-09T22:23:01.423Z,10.98
2023-01-09T22:25:28.507Z,13.95
2023-01-09T22:27:55.042Z,13.57
2023-01-09T22:30:21.670Z,13.68
2023-01-09T22:32:48.254Z,11.82
2023-01-09T22:35:17.463Z,10.80
2023-01-09T22:37:44.103Z,12.68
2023-01-09T22:40:10.985Z,11.07
2023-01-09T22:42:37.637Z,13.00
2023-01-09T22:45:04.676Z,11.55
2023-01-09T22:47:31.303Z,11.77
2023-01-09T22:49:57.924Z,10.68
2023-01-09T22:52:25.105Z,10.27
2023-01-09T22:54:51.731Z,11.88
2023-01-09T22:57:20.097Z,11.70
2023-01-09T22:59:46.871Z,11.23
2023-01-09T23:02:14.001Z,11.82
2023-01-09T23:04:40.713Z,11.38
2023-01-09T23:07:07.349Z,12.88
2023-01-09T23:09:34.004Z,14.10
2023-01-09T23:12:03.433Z,11.18
2023-01-09T23:14:35.375Z,11.45
2023-01-09T23:17:02.855Z,13.85
2023-01-09T23:19:32.431Z,11.00
2023-01-09T23:21:59.713Z,12.43
2023-01-09T23:24:27.173Z,10.85
2023-01-09T23:26:55.078Z,11.20
2023-01-09T23:29:22.544Z,10.52
2023-01-09T23:31:49.288Z,10.55
2023-01-09T23:34:17.752Z,9.73
2023-01-09T23:36:44.673Z,10.32
2023-01-09T23:39:11.248Z,10.68
2023-01-09T23:41:56.322Z,14.27
2023-01-09T23:44:23.222Z,9.73
2023-01-09T23:46:50.236Z,11.60
2023-01-09T23:49:16.768Z,10.20
2023-01-09T23:51:43.345Z,11.30
2023-01-09T23:54:09.917Z,10.77
2023-01-09T23:56:36.534Z,10.05
2023-01-09T23:59:06.707Z,10.52
